Aviation Digital Data Service (ADDS)

Output produced by TAFs form (2230 UTC 01 April 2015)
found at http://aviationweather.gov/adds/tafs/
 
KFMN 011736Z 0118/0218 26020G28KT P6SM FEW080 
     FM020000 29008KT P6SM SKC 
     FM021600 26012G20KT P6SM SKC